Data for 04/25/2008

Time Sea-Level Adjusted Pressure Absolute Pressure Temperature Relative Humidity Dew Point   
(mb) (inHg) (mb) (inHg) (C) (F) (%) (C) (F)
00:05 1020 30.12 849 25.07 -0.9 30.4 94 -1.7 29
00:10 1020 30.12 849 25.07 -0.9 30.4 94 -1.7 28.9
00:15 1020 30.12 849 25.07 -1 30.2 94 -1.8 28.7
00:20 1020 30.12 849 25.07 -1.1 29.9 94 -2 28.5
00:25 1020 30.12 849 25.07 -1.3 29.7 94 -2.1 28.3
00:30 1020 30.12 849 25.07 -1.4 29.6 95 -2.1 28.2
00:35 1020 30.12 849 25.07 -1.4 29.5 94 -2.2 28.1
00:40 1020 30.12 849 25.07 -1.4 29.5 94 -2.2 28
00:45 1020 30.12 849 25.07 -1.4 29.6 94 -2.2 28
00:50 1020 30.12 849 25.07 -1.3 29.7 94 -2.2 28.1
00:55 1020 30.12 849 25.07 -1.3 29.7 94 -2.2 28
01:00 1020 30.12 849 25.07 -1.4 29.5 94 -2.3 27.9
01:05 1020 30.12 849 25.07 -1.4 29.4 94 -2.3 27.9
01:10 1020 30.12 849 25.07 -1.5 29.3 94 -2.4 27.7
01:15 1020 30.12 849 25.07 -1.6 29.1 94 -2.5 27.5
01:20 1020 30.12 849 25.07 -1.7 28.9 94 -2.6 27.4
01:25 1020 30.12 849 25.07 -1.8 28.8 94 -2.6 27.2
01:30 1020 30.12 849 25.07 -1.8 28.7 94 -2.6 27.2
01:35 1020 30.12 849 25.07 -1.8 28.8 94 -2.6 27.3
01:40 1020 30.12 849 25.07 -1.7 28.9 94 -2.6 27.4
01:45 1020 30.12 849 25.07 -1.6 29.2 93 -2.5 27.5
01:50 1020 30.12 849 25.07 -1.5 29.3 93 -2.5 27.5
01:55 1020 30.12 849 25.07 -1.4 29.5 92 -2.5 27.4
02:00 1020 30.12 849 25.07 -1.4 29.5 92 -2.6 27.3
02:05 1020 30.12 849 25.07 -1.4 29.5 91 -2.6 27.3
02:10 1020 30.12 849 25.07 -1.3 29.6 91 -2.6 27.4
02:15 1020 30.12 849 25.07 -1.3 29.6 91 -2.7 27.2
02:20 1020 30.12 849 25.07 -1.5 29.2 91 -2.9 26.8
02:25 1020 30.12 849 25.07 -1.6 29.1 91 -3 26.7
02:30 1020 30.12 849 25.07 -1.7 29 91 -3 26.6
02:35 1020 30.12 849 25.07 -1.7 29 91 -3 26.6
02:40 1020 30.12 849 25.07 -1.7 28.9 91 -3.1 26.5
02:45 1020 30.12 849 25.07 -1.8 28.7 91 -3.2 26.3
02:50 1020 30.12 849 25.07 -1.9 28.6 91 -3.2 26.3
02:55 1020 30.12 849 25.07 -1.9 28.6 91 -3.1 26.4
03:00 1020 30.12 849 25.07 -1.8 28.8 91 -3.1 26.4
03:05 1019 30.09 849 25.07 -1.7 28.9 90 -3.1 26.3
03:10 1019 30.09 849 25.07 -1.7 28.9 90 -3.1 26.3
03:15 1019 30.09 849 25.07 -1.8 28.8 90 -3.2 26.2
03:20 1019 30.09 849 25.07 -1.9 28.6 90 -3.3 26.1
03:25 1019 30.09 849 25.07 -1.8 28.7 90 -3.3 26.1
03:30 1019 30.09 849 25.07 -1.8 28.8 90 -3.3 26.1
03:35 1019 30.09 849 25.07 -1.6 29 90 -3.1 26.3
03:40 1019 30.09 848 25.04 -1.4 29.4 89 -3 26.6
03:45 1019 30.09 848 25.04 -1.3 29.6 88 -3 26.6
03:50 1019 30.09 848 25.04 -1.3 29.8 88 -3 26.6
03:55 1019 30.09 848 25.04 -1.2 29.8 87 -3.1 26.5
04:00 1019 30.09 848 25.04 -1.5 29.4 88 -3.2 26.2
04:05 1019 30.09 848 25.04 -1.7 28.9 89 -3.4 25.9
04:10 1019 30.09 848 25.04 -1.7 29 89 -3.3 26
04:15 1019 30.09 848 25.04 -1.3 29.6 88 -3.2 26.3
04:20 1019 30.09 848 25.04 -1.2 29.8 87 -3 26.6
04:25 1019 30.09 848 25.04 -1.3 29.6 87 -3.1 26.3
04:30 1019 30.09 848 25.04 -1.5 29.4 88 -3.2 26.3
04:35 1019 30.09 848 25.04 -1.8 28.8 89 -3.4 25.9
04:40 1019 30.09 848 25.04 -1.8 28.7 89 -3.5 25.8
04:45 1019 30.09 848 25.04 -1.7 28.9 88 -3.4 25.9
04:50 1019 30.09 848 25.04 -1.7 28.9 88 -3.4 25.9
04:55 1019 30.09 848 25.04 -1.7 29 88 -3.4 25.8
05:00 1019 30.09 848 25.04 -1.5 29.3 88 -3.3 26.1
05:05 1019 30.09 848 25.04 -1.3 29.6 87 -3.2 26.2
05:10 1019 30.09 848 25.04 -1.3 29.6 87 -3.2 26.2
05:15 1019 30.09 848 25.04 -1.4 29.5 87 -3.3 26
05:20 1019 30.09 848 25.04 -1.3 29.6 87 -3.2 26.2
05:25 1019 30.09 848 25.04 -1.3 29.6 87 -3.2 26.3
05:30 1019 30.09 848 25.04 -1.4 29.5 87 -3.2 26.2
05:35 1019 30.09 848 25.04 -1.2 29.8 87 -3.2 26.3
05:40 1018 30.06 848 25.04 -1.2 29.8 86 -3.3 26.1
05:45 1019 30.09 848 25.04 -1.1 30 86 -3.2 26.2
05:50 1018 30.06 848 25.04 -0.9 30.3 85 -3.2 26.2
05:55 1018 30.06 848 25.04 -0.3 31.5 79 -3.6 25.6
06:00 1018 30.06 848 25.04 0.6 33.1 74 -3.5 25.7
06:05 1019 30.09 848 25.04 1 33.9 72 -3.4 25.9
06:10 1019 30.09 848 25.04 1.3 34.4 70 -3.5 25.6
06:15 1019 30.09 848 25.04 1.2 34.2 71 -3.6 25.6
06:20 1019 30.09 848 25.04 0.5 32.8 73 -3.8 25.2
06:25 1019 30.09 848 25.04 -0.1 31.8 76 -3.9 24.9
06:30 1018 30.06 848 25.04 -0.2 31.6 76 -4 24.8
06:35 1018 30.06 848 25.04 -0.2 31.6 76 -3.9 25
06:40 1018 30.06 848 25.04 -0.3 31.5 77 -3.9 25.1
06:45 1018 30.06 848 25.04 -0.3 31.5 77 -3.9 25.1
06:50 1018 30.06 848 25.04 0 32.1 76 -3.7 25.3
06:55 1018 30.06 848 25.04 0.2 32.4 75 -3.7 25.3
07:00 1018 30.06 848 25.04 0.5 32.9 73 -3.8 25.2
07:05 1018 30.06 848 25.04 0.8 33.5 72 -3.7 25.3
07:10 1018 30.06 848 25.04 1 33.7 71 -3.7 25.4
07:15 1018 30.06 848 25.04 1.1 34.1 71 -3.5 25.6
07:20 1018 30.06 848 25.04 0.9 33.6 72 -3.5 25.6
07:25 1018 30.06 848 25.04 0.5 32.9 73 -3.7 25.3
07:30 1019 30.09 848 25.04 0.5 32.9 73 -3.7 25.3
07:35 1019 30.09 848 25.04 0.6 33 75 -3.4 25.9
07:40 1019 30.09 848 25.04 0.5 33 74 -3.5 25.7
07:45 1019 30.09 848 25.04 0.8 33.4 75 -3.2 26.3
07:50 1019 30.09 848 25.04 0.7 33.3 76 -3.1 26.5
07:55 1019 30.09 848 25.04 0.7 33.2 77 -2.9 26.8
08:00 1019 30.09 848 25.04 0.8 33.5 75 -3.1 26.4
08:05 1019 30.09 848 25.04 1 33.7 75 -3.1 26.5
08:10 1019 30.09 848 25.04 1 33.7 75 -2.9 26.8
08:15 1019 30.09 848 25.04 0.8 33.5 77 -2.8 27
08:20 1019 30.09 848 25.04 0.9 33.7 77 -2.7 27.2
08:25 1019 30.09 848 25.04 1.1 34 75 -2.8 26.9
08:30 1019 30.09 848 25.04 1.2 34.2 75 -2.8 27
08:35 1018 30.06 848 25.04 1.3 34.4 74 -2.9 26.8
08:40 1018 30.06 848 25.04 1.4 34.5 73 -2.9 26.8
08:45 1018 30.06 848 25.04 1.4 34.5 73 -2.8 26.9
08:50 1018 30.06 848 25.04 1.5 34.8 73 -2.8 27
08:55 1018 30.06 848 25.04 1.6 34.8 72 -2.9 26.8
09:00 1018 30.06 848 25.04 1.7 35.1 72 -2.8 27
09:05 1018 30.06 848 25.04 1.9 35.5 72 -2.6 27.2
09:10 1018 30.06 847 25.01 2.2 35.9 71 -2.6 27.3
09:15 1018 30.06 847 25.01 2.1 35.9 72 -2.4 27.7
09:20 1018 30.06 847 25.01 1.4 34.5 74 -2.7 27.1
09:25 1018 30.06 847 25.01 1.3 34.4 75 -2.7 27.2
09:30 1018 30.06 847 25.01 2 35.5 73 -2.3 27.8
09:35 1018 30.06 847 25.01 2.7 36.9 70 -2.3 27.9
09:40 1018 30.06 847 25.01 2.2 35.9 72 -2.4 27.7
09:45 1018 30.06 847 25.01 2.2 36 71 -2.4 27.7
09:50 1018 30.06 847 25.01 2.7 36.8 70 -2.2 28
09:55 1018 30.06 847 25.01 3.1 37.6 69 -2.1 28.3
10:00 1018 30.06 847 25.01 2.9 37.3 68 -2.4 27.7
10:05 1018 30.06 847 25.01 2 35.6 70 -2.8 26.9
10:10 1018 30.06 847 25.01 2 35.7 71 -2.6 27.3
10:15 1018 30.06 847 25.01 1.9 35.4 73 -2.5 27.5
10:20 1018 30.06 847 25.01 1.6 34.9 72 -2.9 26.8
10:25 1018 30.06 847 25.01 2.2 35.9 70 -2.8 27
10:30 1018 30.06 847 25.01 2.5 36.5 69 -2.6 27.3
10:35 1018 30.06 847 25.01 3.1 37.6 66 -2.7 27.2
10:40 1018 30.06 847 25.01 2.8 37.1 66 -2.9 26.7
10:45 1018 30.06 847 25.01 2.6 36.7 65 -3.2 26.2
10:50 1018 30.06 847 25.01 3.2 37.8 65 -2.7 27.2
10:55 1018 30.06 847 25.01 4.1 39.4 62 -2.6 27.4
11:00 1018 30.06 847 25.01 4.4 39.9 61 -2.5 27.4
11:05 1018 30.06 847 25.01 4.5 40.1 59 -2.9 26.7
11:10 1018 30.06 847 25.01 4.9 40.8 54 -3.5 25.6
11:15 1018 30.06 847 25.01 4.4 39.8 55 -3.8 25.2
11:20 1018 30.06 847 25.01 4.3 39.7 57 -3.5 25.8
11:25 1018 30.06 847 25.01 5 40.9 54 -3.7 25.4
11:30 1018 30.06 847 25.01 6.2 43.1 50 -3.4 25.9
11:35 1018 30.06 847 25.01 6.2 43.2 50 -3.4 26
11:40 1018 30.06 847 25.01 5.6 42.1 51 -3.6 25.5
11:45 1018 30.06 847 25.01 5.5 41.8 52 -3.7 25.3
11:50 1018 30.06 847 25.01 5.5 41.9 50 -4.2 24.4
11:55 1017 30.03 847 25.01 5.7 42.2 50 -4 24.8
12:00 1017 30.03 847 25.01 5.1 41.3 51 -4.1 24.6
12:05 1017 30.03 847 25.01 5.1 41.3 49 -4.6 23.7
12:10 1017 30.03 847 25.01 5.5 41.8 46 -5.3 22.5
12:15 1017 30.03 847 25.01 5.5 41.9 47 -4.9 23.2
12:20 1017 30.03 846 24.98 5.7 42.2 48 -4.6 23.7
12:25 1017 30.03 846 24.98 5.4 41.7 47 -4.9 23.2
12:30 1017 30.03 846 24.98 4.7 40.5 49 -5.1 22.9
12:35 1017 30.03 846 24.98 5 41 49 -4.8 23.4
12:40 1017 30.03 846 24.98 5.5 42 47 -4.9 23.2
12:45 1017 30.03 846 24.98 6 42.8 44 -5.3 22.5
12:50 1017 30.03 846 24.98 5.6 42.2 46 -5.1 22.8
12:55 1017 30.03 846 24.98 5.4 41.7 46 -5.4 22.2
13:00 1016 30 846 24.98 5.2 41.3 46 -5.6 22
13:05 1016 30 846 24.98 5 40.9 46 -5.6 21.9
13:10 1016 30 846 24.98 5.4 41.6 44 -6 21.2
13:15 1016 30 846 24.98 5.7 42.3 44 -5.5 22
13:20 1016 30 845 24.95 5.8 42.5 43 -5.8 21.6
13:25 1016 30 845 24.95 5.4 41.8 44 -5.8 21.5
13:30 1016 30 846 24.98 5.2 41.4 45 -5.8 21.6
13:35 1016 30 846 24.98 4 39.2 69 -1.2 29.8
13:40 1017 30.03 846 24.98 1.4 34.5 82 -1.3 29.6
13:45 1017 30.03 846 24.98 -0.2 31.7 90 -1.7 29
13:50 1017 30.03 847 25.01 -0.7 30.8 95 -1.4 29.4
13:55 1018 30.06 847 25.01 -0.9 30.3 96 -1.5 29.3
14:00 1018 30.06 847 25.01 -1.1 30 97 -1.5 29.2
14:05 1018 30.06 847 25.01 -1.2 29.9 98 -1.5 29.3
14:10 1018 30.06 847 25.01 -1.1 30 99 -1.3 29.6
14:15 1018 30.06 847 25.01 -0.8 30.5 98 -1.1 30.1
14:20 1018 30.06 847 25.01 -0.8 30.6 98 -1.1 30
14:25 1018 30.06 847 25.01 -0.9 30.4 98 -1.2 29.8
14:30 1018 30.06 847 25.01 -0.8 30.6 97 -1.2 29.9
14:35 1018 30.06 847 25.01 -0.7 30.8 96 -1.3 29.7
14:40 1017 30.03 847 25.01 -0.2 31.6 95 -0.9 30.5
14:45 1018 30.06 847 25.01 0.4 32.7 94 -0.5 31.1
14:50 1018 30.06 847 25.01 0.7 33.3 93 -0.3 31.5
14:55 1018 30.06 847 25.01 0.9 33.5 92 -0.4 31.4
15:00 1018 30.06 847 25.01 0.6 33 94 -0.4 31.4
15:05 1018 30.06 847 25.01 0.1 32.1 96 -0.5 31.1
15:10 1018 30.06 847 25.01 0.1 32.2 97 -0.3 31.4
15:15 1018 30.06 847 25.01 0.5 33 97 0.1 32.1
15:20 1018 30.06 847 25.01 1.2 34.2 97 0.7 33.3
15:25 1018 30.06 847 25.01 1.5 34.8 95 0.8 33.5
15:30 1018 30.06 847 25.01 1.3 34.4 94 0.5 32.9
15:35 1018 30.06 847 25.01 1.2 34.1 94 0.3 32.6
15:40 1018 30.06 847 25.01 1.4 34.6 93 0.4 32.7
15:45 1018 30.06 847 25.01 0.8 33.5 93 -0.2 31.6
15:50 1018 30.06 847 25.01 0.6 33 93 -0.4 31.2
15:55 1018 30.06 847 25.01 0.8 33.5 92 -0.3 31.5
16:00 1018 30.06 847 25.01 1 33.8 90 -0.4 31.3
16:05 1018 30.06 847 25.01 0.4 32.8 91 -0.8 30.5
16:10 1018 30.06 847 25.01 0.3 32.6 94 -0.6 30.9
16:15 1018 30.06 847 25.01 1.1 34 93 0.1 32.2
16:20 1018 30.06 847 25.01 1.4 34.5 91 0.1 32.2
16:25 1018 30.06 847 25.01 0.8 33.4 95 0 32
16:30 1018 30.06 847 25.01 1.8 35.2 93 0.8 33.4
16:35 1018 30.06 847 25.01 2.1 35.9 92 1 33.8
16:40 1018 30.06 847 25.01 2 35.5 91 0.7 33.3
16:45 1018 30.06 847 25.01 1.4 34.5 92 0.2 32.4
16:50 1018 30.06 847 25.01 1.1 34 92 -0 31.9
16:55 1018 30.06 847 25.01 1 33.9 92 -0 31.9
17:00 1018 30.06 847 25.01 0.9 33.7 92 -0.2 31.7
17:05 1018 30.06 847 25.01 1 33.9 91 -0.2 31.6
17:10 1018 30.06 847 25.01 0.8 33.4 91 -0.6 31
17:15 1018 30.06 847 25.01 0.7 33.3 91 -0.6 30.8
17:20 1018 30.06 847 25.01 0.9 33.7 89 -0.6 30.9
17:25 1018 30.06 848 25.04 0.7 33.3 89 -1 30.2
17:30 1018 30.06 848 25.04 0.6 33.1 88 -1.1 30
17:35 1019 30.09 848 25.04 0.4 32.7 91 -1 30.3
17:40 1019 30.09 848 25.04 0.1 32.2 93 -0.9 30.3
17:45 1019 30.09 848 25.04 -0 31.9 94 -0.9 30.4
17:50 1019 30.09 848 25.04 -0.2 31.6 96 -0.8 30.6
17:55 1019 30.09 848 25.04 -0 32 96 -0.6 30.9
18:00 1019 30.09 848 25.04 0.1 32.3 96 -0.4 31.2
18:05 1019 30.09 848 25.04 0.3 32.6 96 -0.2 31.6
18:10 1019 30.09 848 25.04 0.6 33 95 -0.1 31.8
18:15 1019 30.09 848 25.04 0.9 33.5 95 0.2 32.3
18:20 1019 30.09 848 25.04 1 33.7 95 0.2 32.3
18:25 1019 30.09 848 25.04 0.7 33.3 95 0 32.1
18:30 1019 30.09 849 25.07 0.7 33.2 94 -0.2 31.6
18:35 1019 30.09 849 25.07 0.2 32.3 95 -0.6 31
18:40 1020 30.12 849 25.07 0.1 32.1 95 -0.6 30.8
18:45 1020 30.12 849 25.07 -0.3 31.4 96 -0.9 30.3
18:50 1020 30.12 849 25.07 -0.6 30.9 96 -1.1 30
18:55 1020 30.12 849 25.07 -0.5 31.1 96 -1.1 30
19:00 1020 30.12 849 25.07 -0.7 30.7 96 -1.2 29.8
19:05 1020 30.12 849 25.07 -0.9 30.4 97 -1.4 29.5
19:10 1020 30.12 849 25.07 -0.9 30.4 97 -1.4 29.5
19:15 1020 30.12 849 25.07 -0.6 30.8 96 -1.2 29.9
19:20 1020 30.12 849 25.07 -0.2 31.6 96 -0.8 30.5
19:25 1020 30.12 849 25.07 0.4 32.7 94 -0.4 31.2
19:30 1020 30.12 849 25.07 0.5 33 93 -0.4 31.3
19:35 1020 30.12 849 25.07 0.5 33 90 -1 30.3
19:40 1020 30.12 849 25.07 0.5 32.8 88 -1.4 29.5
19:45 1020 30.12 849 25.07 0.5 32.9 89 -1.1 29.9
19:50 1020 30.12 849 25.07 0.4 32.7 89 -1.2 29.9
19:55 1020 30.12 849 25.07 0.4 32.7 88 -1.3 29.6
20:00 1020 30.12 849 25.07 0.3 32.5 89 -1.4 29.5
20:05 1020 30.12 850 25.1 0.1 32.2 90 -1.4 29.5
20:10 1020 30.12 850 25.1 -0.1 31.7 91 -1.5 29.3
20:15 1021 30.15 850 25.1 -0.3 31.4 91 -1.6 29.2
20:20 1021 30.15 850 25.1 -0.3 31.4 92 -1.5 29.3
20:25 1021 30.15 850 25.1 -0.3 31.4 92 -1.5 29.4
20:30 1021 30.15 850 25.1 -0.3 31.5 92 -1.4 29.4
20:35 1021 30.15 850 25.1 -0.3 31.4 90 -1.8 28.8
20:40 1021 30.15 850 25.1 0.1 32.2 84 -2.3 27.9
20:45 1021 30.15 850 25.1 0.5 32.9 78 -2.9 26.7
20:50 1021 30.15 850 25.1 0.7 33.2 76 -3.1 26.3
20:55 1021 30.15 850 25.1 0.6 33.1 74 -3.5 25.7
21:00 1021 30.15 850 25.1 0.6 33.2 72 -3.8 25.2
21:05 1021 30.15 850 25.1 0.6 33.1 72 -3.9 25
21:10 1021 30.15 851 25.13 0.6 33.1 72 -3.9 25
21:15 1021 30.15 851 25.13 0.5 32.9 72 -3.9 25
21:20 1021 30.15 851 25.13 0.5 32.9 73 -3.8 25.2
21:25 1022 30.18 851 25.13 0.5 32.9 73 -3.7 25.3
21:30 1022 30.18 851 25.13 0.5 32.9 74 -3.6 25.6
21:35 1022 30.18 851 25.13 0.4 32.7 75 -3.5 25.7
21:40 1022 30.18 851 25.13 0.3 32.6 76 -3.4 25.8
21:45 1022 30.18 851 25.13 0.3 32.5 77 -3.3 26
21:50 1022 30.18 851 25.13 0.2 32.3 77 -3.4 25.9
21:55 1022 30.18 851 25.13 0.1 32.2 78 -3.4 25.9
22:00 1022 30.18 851 25.13 0.1 32.1 78 -3.3 26
22:05 1022 30.18 851 25.13 0 32 78 -3.4 25.9
22:10 1022 30.18 852 25.16 0 32 78 -3.4 25.9
22:15 1022 30.18 852 25.16 0 32 78 -3.4 26
22:20 1023 30.21 852 25.16 0.1 32.1 78 -3.4 25.9
22:25 1023 30.21 852 25.16 0.1 32.2 77 -3.4 25.9
22:30 1023 30.21 852 25.16 0.1 32.2 76 -3.6 25.6
22:35 1023 30.21 852 25.16 0.1 32.2 76 -3.6 25.5
22:40 1023 30.21 852 25.16 0.2 32.3 76 -3.5 25.6
22:45 1023 30.21 852 25.16 0.1 32.2 78 -3.3 26.1
22:50 1023 30.21 852 25.16 0.1 32.2 79 -3.1 26.4
22:55 1023 30.21 852 25.16 -0 32 80 -3 26.5
23:00 1023 30.21 852 25.16 -0 32 80 -3.1 26.5
23:05 1023 30.21 852 25.16 -0.1 31.8 80 -3.1 26.4
23:10 1023 30.21 852 25.16 -0.1 31.8 81 -3 26.6
23:15 1023 30.21 852 25.16 -0.2 31.7 82 -2.9 26.8
23:20 1023 30.21 852 25.16 -0.5 31.1 85 -2.6 27.3
23:25 1023 30.21 852 25.16 -0.9 30.3 89 -2.6 27.4
23:30 1023 30.21 853 25.19 -1.1 30 91 -2.4 27.6
23:35 1023 30.21 853 25.19 -1.1 30 92 -2.3 27.8
23:40 1023 30.21 853 25.19 -1.2 29.8 92 -2.3 27.9
23:45 1023 30.21 853 25.19 -1.2 29.8 93 -2.2 28.1
23:50 1024 30.24 853 25.19 -1.4 29.5 94 -2.2 28.1
23:55 1024 30.24 853 25.19 -1.6 29.1 95 -2.2 28
24:00 1024 30.24 853 25.19 -1.6 29.1 96 -2.2 28.1